Time;durP1;ratioP1;P1;durP2;ratioP2;P2;SDS_P1;SDS_P2;PMS_P1;PMS_P2;Temp;Humidity;BMP_temperature;BMP_pressure;BME280_temperature;BME280_humidity;BME280_pressure;Samples;Min_cycle;Max_cycle;Signal;HPM_P1;HPM_P2
2022/09/08 00:01:42;;;;;;;38.88;31.70;;;;;;;;;;4974347;28;20411;-83
2022/09/08 00:04:08;;;;;;;35.85;29.48;;;;;;;;;;4972204;28;20046;-83
2022/09/08 00:06:34;;;;;;;33.65;27.05;;;;;;;;;;4992091;28;20093;-83
2022/09/08 00:09:00;;;;;;;33.60;27.52;;;;;;;;;;4990875;28;20046;-83
2022/09/08 00:11:28;;;;;;;36.95;30.02;;;;;;;;;;4983974;28;20444;-83
2022/09/08 00:13:56;;;;;;;37.33;29.52;;;;;;;;;;4988386;28;20407;-83
2022/09/08 00:16:22;;;;;;;36.85;30.02;;;;;;;;;;4978118;28;20134;-83
2022/09/08 00:18:50;;;;;;;35.22;28.88;;;;;;;;;;4987973;28;20132;-83
2022/09/08 00:21:17;;;;;;;38.40;29.52;;;;;;;;;;4976234;28;20420;-83
2022/09/08 00:23:43;;;;;;;39.20;31.38;;;;;;;;;;4982557;28;20089;-83
2022/09/08 00:26:09;;;;;;;37.72;29.30;;;;;;;;;;4987268;28;20042;-83
2022/09/08 00:28:35;;;;;;;38.67;29.63;;;;;;;;;;4973505;28;20043;-83
2022/09/08 00:31:03;;;;;;;36.08;29.63;;;;;;;;;;4987276;28;20046;-82
2022/09/08 00:33:29;;;;;;;34.88;28.25;;;;;;;;;;4980139;28;20108;-83
2022/09/08 00:35:55;;;;;;;36.13;26.90;;;;;;;;;;4980311;28;20050;-83
2022/09/08 00:38:21;;;;;;;31.10;25.25;;;;;;;;;;4993081;28;20050;-83
2022/09/08 00:40:49;;;;;;;32.85;26.40;;;;;;;;;;4989075;28;20431;-83
2022/09/08 00:43:33;;;;;;;33.63;25.90;;;;;;;;;;4972027;28;20050;-83
2022/09/08 00:46:03;;;;;;;30.35;25.55;;;;;;;;;;4985936;28;20223;-83
2022/09/08 00:48:30;;;;;;;30.02;24.70;;;;;;;;;;4978259;28;20039;-83
2022/09/08 00:50:58;;;;;;;31.73;25.92;;;;;;;;;;4989190;28;20058;-82
2022/09/08 00:53:25;;;;;;;30.00;25.48;;;;;;;;;;4992434;28;20130;-83
2022/09/08 00:55:52;;;;;;;32.60;25.08;;;;;;;;;;4974055;28;20051;-83
2022/09/08 00:58:18;;;;;;;30.40;24.13;;;;;;;;;;4982364;28;20511;-83
2022/09/08 01:00:44;;;;;;;29.60;24.60;;;;;;;;;;4991349;28;20123;-83
2022/09/08 01:03:12;;;;;;;28.45;24.55;;;;;;;;;;4989609;28;20141;-83
2022/09/08 01:05:46;;;;;;;32.33;26.02;;;;;;;;;;4993057;28;20043;-83
2022/09/08 01:14:06;;;;;;;32.38;24.75;;;;;;;;;;4991289;28;20044;-83
2022/09/08 01:16:39;;;;;;;31.52;25.25;;;;;;;;;;4989672;28;20046;-83
2022/09/08 01:19:06;;;;;;;30.35;24.38;;;;;;;;;;4991756;28;20073;-83
2022/09/08 01:21:51;;;;;;;30.67;25.02;;;;;;;;;;4991127;28;20050;-83
2022/09/08 01:24:20;;;;;;;31.55;25.48;;;;;;;;;;4990781;28;20514;-83
2022/09/08 01:26:50;;;;;;;32.10;25.42;;;;;;;;;;4988008;28;20046;-83
2022/09/08 01:29:17;;;;;;;28.60;23.92;;;;;;;;;;4954345;28;20051;-83
2022/09/08 01:31:44;;;;;;;27.67;23.27;;;;;;;;;;4971151;28;20035;-83
2022/09/08 01:34:10;;;;;;;33.15;25.52;;;;;;;;;;4988946;28;20050;-83
2022/09/08 01:36:36;;;;;;;31.85;24.85;;;;;;;;;;4990374;28;20069;-83
2022/09/08 01:39:03;;;;;;;31.58;25.27;;;;;;;;;;4978356;28;20065;-83
2022/09/08 01:41:29;;;;;;;29.02;24.75;;;;;;;;;;4970982;28;20046;-83
2022/09/08 01:43:55;;;;;;;29.90;24.52;;;;;;;;;;4976556;28;20046;-83
2022/09/08 01:46:21;;;;;;;34.70;26.75;;;;;;;;;;4991653;28;20046;-83
2022/09/08 01:48:47;;;;;;;32.65;25.63;;;;;;;;;;4987170;28;20092;-83
2022/09/08 01:51:13;;;;;;;31.30;25.45;;;;;;;;;;4989970;28;20058;-83
2022/09/08 01:53:39;;;;;;;29.95;25.13;;;;;;;;;;4990649;28;20053;-83
2022/09/08 01:56:05;;;;;;;32.60;25.02;;;;;;;;;;4987526;28;20096;-83
2022/09/08 01:58:32;;;;;;;32.90;24.45;;;;;;;;;;4982166;28;20129;-83
2022/09/08 02:00:58;;;;;;;31.63;25.95;;;;;;;;;;4982160;28;20503;-83
2022/09/08 02:03:24;;;;;;;34.30;26.08;;;;;;;;;;4971873;28;20113;-83
2022/09/08 02:05:50;;;;;;;32.75;26.33;;;;;;;;;;4976094;28;20048;-83
2022/09/08 02:08:16;;;;;;;31.73;26.67;;;;;;;;;;4990025;28;20074;-83
2022/09/08 02:10:42;;;;;;;32.83;26.88;;;;;;;;;;4990871;28;20043;-83
2022/09/08 02:13:08;;;;;;;34.72;26.50;;;;;;;;;;4980841;28;20547;-83
2022/09/08 02:15:35;;;;;;;45.47;27.60;;;;;;;;;;4971249;28;20046;-83
2022/09/08 02:18:01;;;;;;;32.63;27.60;;;;;;;;;;4976457;28;20088;-83
2022/09/08 02:20:27;;;;;;;35.55;27.83;;;;;;;;;;4991050;28;20039;-83
2022/09/08 02:22:56;;;;;;;36.55;27.35;;;;;;;;;;4989162;28;20034;-83
2022/09/08 02:25:22;;;;;;;35.28;27.85;;;;;;;;;;4976990;28;20053;-83
2022/09/08 02:27:51;;;;;;;33.38;27.30;;;;;;;;;;4970865;28;20051;-83
2022/09/08 02:30:17;;;;;;;34.28;27.38;;;;;;;;;;4988896;28;20049;-83
2022/09/08 02:32:43;;;;;;;36.95;28.08;;;;;;;;;;4990941;28;20050;-83
2022/09/08 02:35:09;;;;;;;36.72;27.75;;;;;;;;;;4976585;28;20058;-83
2022/09/08 02:37:35;;;;;;;36.13;28.17;;;;;;;;;;4987720;28;20047;-83
2022/09/08 02:40:03;;;;;;;39.30;27.60;;;;;;;;;;4956363;28;20385;-83
2022/09/08 02:42:29;;;;;;;33.50;27.33;;;;;;;;;;4973532;28;20522;-83
2022/09/08 02:44:55;;;;;;;35.67;28.60;;;;;;;;;;4979001;28;20042;-83
2022/09/08 02:47:21;;;;;;;36.10;27.92;;;;;;;;;;4970997;28;20097;-83
2022/09/08 02:49:47;;;;;;;35.90;29.10;;;;;;;;;;4982158;28;20514;-83
2022/09/08 02:52:13;;;;;;;33.15;27.15;;;;;;;;;;4990351;28;20038;-83
2022/09/08 02:54:39;;;;;;;37.33;27.50;;;;;;;;;;4981388;28;20133;-83
2022/09/08 02:57:05;;;;;;;35.83;27.92;;;;;;;;;;4952769;28;20047;-82
2022/09/08 02:59:31;;;;;;;36.33;27.98;;;;;;;;;;4984267;28;20521;-82
2022/09/08 03:01:58;;;;;;;34.97;28.25;;;;;;;;;;4990048;28;20483;-82
2022/09/08 03:04:24;;;;;;;33.83;26.42;;;;;;;;;;4983339;28;20070;-82
2022/09/08 03:06:51;;;;;;;33.90;26.95;;;;;;;;;;4979734;28;20042;-83
2022/09/08 03:09:17;;;;;;;38.05;27.88;;;;;;;;;;4989033;28;20096;-82
2022/09/08 03:11:43;;;;;;;34.83;27.38;;;;;;;;;;4987474;28;20130;-82
2022/09/08 03:14:09;;;;;;;33.63;27.80;;;;;;;;;;4989088;28;20093;-83
2022/09/08 03:16:35;;;;;;;36.15;28.52;;;;;;;;;;4970529;28;20049;-83
2022/09/08 03:19:01;;;;;;;35.95;27.05;;;;;;;;;;4969503;28;20102;-83
2022/09/08 03:21:30;;;;;;;33.40;27.23;;;;;;;;;;4972393;28;20447;-83
2022/09/08 03:23:56;;;;;;;39.00;28.55;;;;;;;;;;4990035;28;20057;-83
2022/09/08 03:26:24;;;;;;;34.38;27.63;;;;;;;;;;4972744;28;20039;-82
2022/09/08 03:28:50;;;;;;;37.15;28.63;;;;;;;;;;4979395;28;20487;-83
2022/09/08 03:31:16;;;;;;;36.70;28.45;;;;;;;;;;4984250;28;20104;-83
2022/09/08 03:33:43;;;;;;;38.78;29.75;;;;;;;;;;4989993;28;20061;-83
2022/09/08 03:36:10;;;;;;;37.25;29.50;;;;;;;;;;4973172;28;20086;-83
2022/09/08 03:38:36;;;;;;;38.85;29.30;;;;;;;;;;4969666;28;20126;-83
2022/09/08 03:41:10;;;;;;;38.13;29.60;;;;;;;;;;4978797;28;20511;-83
2022/09/08 03:43:36;;;;;;;35.97;28.90;;;;;;;;;;4988821;28;20058;-83
2022/09/08 03:46:06;;;;;;;38.35;30.27;;;;;;;;;;4975347;28;20047;-83
2022/09/08 03:48:34;;;;;;;40.67;29.83;;;;;;;;;;4968934;28;20051;-83
2022/09/08 03:51:09;;;;;;;40.03;30.08;;;;;;;;;;4970114;28;21667;-83
2022/09/08 03:53:35;;;;;;;43.38;31.00;;;;;;;;;;4968809;28;20046;-83
2022/09/08 03:56:05;;;;;;;41.60;30.77;;;;;;;;;;4972286;28;20053;-83
2022/09/08 03:58:32;;;;;;;44.08;32.35;;;;;;;;;;4982957;28;20631;-83
2022/09/08 04:01:00;;;;;;;39.67;29.67;;;;;;;;;;4970355;28;20125;-83
2022/09/08 04:03:26;;;;;;;41.72;29.75;;;;;;;;;;4988772;28;20088;-83
2022/09/08 04:05:52;;;;;;;39.25;29.73;;;;;;;;;;4975681;28;20042;-83
2022/09/08 04:08:18;;;;;;;40.22;29.95;;;;;;;;;;4986539;28;20058;-83
2022/09/08 04:10:44;;;;;;;43.15;31.95;;;;;;;;;;4987685;28;20510;-83
2022/09/08 04:13:11;;;;;;;41.92;30.65;;;;;;;;;;4985434;28;20502;-83
2022/09/08 04:15:38;;;;;;;40.75;32.05;;;;;;;;;;4977157;28;20173;-83
2022/09/08 04:18:04;;;;;;;41.70;31.63;;;;;;;;;;4968513;28;20101;-83
2022/09/08 04:20:30;;;;;;;44.45;32.47;;;;;;;;;;4954060;28;20039;-83
2022/09/08 04:22:57;;;;;;;46.58;32.97;;;;;;;;;;4969498;28;20058;-82
2022/09/08 04:25:23;;;;;;;43.20;32.72;;;;;;;;;;4967016;28;20369;-83
2022/09/08 04:27:49;;;;;;;44.05;33.45;;;;;;;;;;4988572;28;20042;-83
2022/09/08 04:30:15;;;;;;;46.45;33.45;;;;;;;;;;4988255;28;20399;-83
2022/09/08 04:32:42;;;;;;;43.42;33.35;;;;;;;;;;4988154;28;20109;-83
2022/09/08 04:35:08;;;;;;;42.25;32.88;;;;;;;;;;4982981;28;20061;-83
2022/09/08 04:37:35;;;;;;;42.63;33.38;;;;;;;;;;4973233;28;20061;-83
2022/09/08 04:40:02;;;;;;;43.70;32.55;;;;;;;;;;4978567;28;20050;-83
2022/09/08 04:42:29;;;;;;;44.15;33.20;;;;;;;;;;4992540;28;20077;-83
2022/09/08 04:44:55;;;;;;;46.33;34.47;;;;;;;;;;4985031;28;20046;-83
2022/09/08 04:47:21;;;;;;;46.97;35.40;;;;;;;;;;4972046;28;20117;-83
2022/09/08 04:49:48;;;;;;;49.75;35.95;;;;;;;;;;4974832;28;20046;-83
2022/09/08 04:52:14;;;;;;;48.10;35.30;;;;;;;;;;4991009;28;20669;-83
2022/09/08 04:54:41;;;;;;;52.70;37.35;;;;;;;;;;4987531;28;20054;-83
2022/09/08 04:57:07;;;;;;;54.08;37.08;;;;;;;;;;4974428;28;20055;-83
2022/09/08 04:59:33;;;;;;;48.53;35.33;;;;;;;;;;4972876;28;20522;-83
2022/09/08 05:01:59;;;;;;;48.45;35.30;;;;;;;;;;4982337;28;20046;-83
2022/09/08 05:04:25;;;;;;;45.60;35.28;;;;;;;;;;4991135;28;20407;-83
2022/09/08 05:06:51;;;;;;;52.10;36.88;;;;;;;;;;4979204;28;20047;-83
2022/09/08 05:09:17;;;;;;;51.85;35.83;;;;;;;;;;4991124;28;20042;-83
2022/09/08 05:11:43;;;;;;;45.35;34.40;;;;;;;;;;4986934;28;20049;-83
2022/09/08 05:14:09;;;;;;;47.17;35.85;;;;;;;;;;4991796;28;20154;-83
2022/09/08 05:16:35;;;;;;;46.53;35.63;;;;;;;;;;4959643;28;20058;-83
2022/09/08 05:19:03;;;;;;;46.65;35.30;;;;;;;;;;4972417;28;20121;-83
2022/09/08 05:21:30;;;;;;;46.05;34.60;;;;;;;;;;4971372;28;20050;-83
2022/09/08 05:24:00;;;;;;;47.10;35.25;;;;;;;;;;4990388;28;20046;-82
2022/09/08 05:26:26;;;;;;;49.25;35.75;;;;;;;;;;4976326;28;20051;-83
2022/09/08 05:28:53;;;;;;;47.88;35.15;;;;;;;;;;4982439;28;20057;-83
2022/09/08 05:31:20;;;;;;;45.55;35.15;;;;;;;;;;4992088;28;20050;-83
2022/09/08 05:33:46;;;;;;;46.85;35.25;;;;;;;;;;4991992;28;20038;-83
2022/09/08 05:36:14;;;;;;;44.53;34.33;;;;;;;;;;4978043;28;20086;-83
2022/09/08 05:38:40;;;;;;;43.38;33.83;;;;;;;;;;4986635;28;20042;-83
2022/09/08 05:41:06;;;;;;;43.78;34.28;;;;;;;;;;4989745;28;20128;-82
2022/09/08 05:43:33;;;;;;;41.80;32.70;;;;;;;;;;4989728;28;20373;-82
2022/09/08 05:45:59;;;;;;;48.10;35.15;;;;;;;;;;4979137;28;20132;-85
2022/09/08 05:48:25;;;;;;;45.35;33.63;;;;;;;;;;4970846;28;20102;-82
2022/09/08 05:50:51;;;;;;;42.50;33.00;;;;;;;;;;4987351;28;20046;-82
2022/09/08 05:53:17;;;;;;;45.65;34.50;;;;;;;;;;4991566;28;20046;-82
2022/09/08 05:55:54;;;;;;;44.05;33.90;;;;;;;;;;4976569;28;20043;-82
2022/09/08 05:58:20;;;;;;;43.55;31.52;;;;;;;;;;4970501;28;20389;-82
2022/09/08 06:00:46;;;;;;;50.50;34.55;;;;;;;;;;4972037;28;20045;-82
2022/09/08 06:03:12;;;;;;;45.22;33.67;;;;;;;;;;4970632;28;20059;-82
2022/09/08 06:05:38;;;;;;;41.05;32.42;;;;;;;;;;4977760;28;20232;-82
2022/09/08 06:08:04;;;;;;;45.88;34.70;;;;;;;;;;4970186;28;20047;-82
2022/09/08 06:10:35;;;;;;;48.72;35.00;;;;;;;;;;4970757;28;20062;-82
2022/09/08 06:13:01;;;;;;;49.28;36.50;;;;;;;;;;4991046;28;20046;-82
2022/09/08 06:15:27;;;;;;;49.88;35.92;;;;;;;;;;4984123;28;20049;-82
2022/09/08 06:17:53;;;;;;;55.90;37.72;;;;;;;;;;4975636;28;20419;-82
2022/09/08 06:20:19;;;;;;;46.00;35.15;;;;;;;;;;4970049;28;20540;-82
2022/09/08 06:22:45;;;;;;;48.55;33.88;;;;;;;;;;4971545;28;20051;-82
2022/09/08 06:25:11;;;;;;;47.75;35.15;;;;;;;;;;4976842;28;20310;-82
2022/09/08 06:27:49;;;;;;;50.85;36.70;;;;;;;;;;4983536;28;20053;-82
2022/09/08 06:30:18;;;;;;;46.75;34.38;;;;;;;;;;4989403;28;20477;-82
2022/09/08 06:32:48;;;;;;;48.58;36.00;;;;;;;;;;4988121;28;20086;-82
2022/09/08 06:35:17;;;;;;;50.97;37.78;;;;;;;;;;4984307;28;20055;-82
2022/09/08 06:37:45;;;;;;;53.15;37.20;;;;;;;;;;4970057;28;20046;-82
2022/09/08 06:40:15;;;;;;;60.65;40.58;;;;;;;;;;4971071;28;20042;-82
2022/09/08 06:42:46;;;;;;;52.35;37.92;;;;;;;;;;4986886;28;20053;-82
2022/09/08 06:45:23;;;;;;;55.13;37.55;;;;;;;;;;4984878;28;20101;-81
2022/09/08 06:48:19;;;;;;;53.65;39.65;;;;;;;;;;4977468;28;20049;-81
2022/09/08 06:51:08;;;;;;;54.28;38.47;;;;;;;;;;4973916;28;20124;-81
2022/09/08 06:53:42;;;;;;;60.08;40.08;;;;;;;;;;4906626;29;20067;-83
2022/09/08 06:56:10;;;;;;;65.60;41.85;;;;;;;;;;4910161;29;20087;-82
2022/09/08 06:58:40;;;;;;;62.88;40.28;;;;;;;;;;4906953;29;20052;-82
2022/09/08 07:01:15;;;;;;;70.22;41.47;;;;;;;;;;4877758;29;20053;-82
2022/09/08 07:03:50;;;;;;;67.73;41.93;;;;;;;;;;4897261;29;20481;-81
2022/09/08 07:06:17;;;;;;;68.57;42.92;;;;;;;;;;4905432;29;20100;-82
2022/09/08 07:09:03;;;;;;;64.97;42.05;;;;;;;;;;4894587;29;20052;-82
2022/09/08 07:11:48;;;;;;;60.63;40.80;;;;;;;;;;4892041;29;20064;-81
2022/09/08 07:14:17;;;;;;;69.68;43.03;;;;;;;;;;4893245;29;20052;-81
2022/09/08 07:16:49;;;;;;;68.38;42.25;;;;;;;;;;4894206;29;20134;-81
2022/09/08 07:19:20;;;;;;;69.88;45.05;;;;;;;;;;4910739;29;20494;-81
2022/09/08 07:21:46;;;;;;;71.65;44.53;;;;;;;;;;4884603;29;20052;-83
2022/09/08 07:24:14;;;;;;;65.45;43.42;;;;;;;;;;4908046;29;20056;-82
2022/09/08 07:26:47;;;;;;;63.70;40.88;;;;;;;;;;4910873;29;20044;-82
2022/09/08 07:29:19;;;;;;;58.10;38.40;;;;;;;;;;4893666;29;20091;-83
2022/09/08 07:31:47;;;;;;;58.35;38.20;;;;;;;;;;4982724;28;20058;-83
2022/09/08 07:34:18;;;;;;;47.65;34.08;;;;;;;;;;4970782;28;20055;-84
2022/09/08 07:37:13;;;;;;;38.85;30.00;;;;;;;;;;4981581;28;20054;-84
2022/09/08 07:39:45;;;;;;;34.33;25.98;;;;;;;;;;4961208;28;20471;-87
2022/09/08 07:42:14;;;;;;;34.92;26.35;;;;;;;;;;4971308;28;20043;-82
2022/09/08 07:44:40;;;;;;;33.15;26.05;;;;;;;;;;4971705;28;20039;-84
2022/09/08 07:47:09;;;;;;;35.35;26.10;;;;;;;;;;4968517;28;20047;-83
2022/09/08 07:49:39;;;;;;;38.42;27.23;;;;;;;;;;4969075;28;20496;-83
2022/09/08 07:52:17;;;;;;;40.35;28.25;;;;;;;;;;4971232;28;20624;-83
2022/09/08 07:54:49;;;;;;;40.00;29.27;;;;;;;;;;4975080;28;20038;-83
2022/09/08 07:57:15;;;;;;;40.25;29.15;;;;;;;;;;4986731;28;20050;-83
2022/09/08 07:59:46;;;;;;;40.10;28.23;;;;;;;;;;4972684;28;20073;-83
2022/09/08 08:02:24;;;;;;;39.55;28.40;;;;;;;;;;4989139;28;20046;-83
2022/09/08 08:05:11;;;;;;;41.42;30.60;;;;;;;;;;4986148;28;20454;-82
2022/09/08 08:07:43;;;;;;;43.35;31.13;;;;;;;;;;4977560;28;20495;-82
2022/09/08 08:10:09;;;;;;;45.95;32.00;;;;;;;;;;4977962;28;20051;-83
2022/09/08 08:12:40;;;;;;;49.47;33.58;;;;;;;;;;4973646;28;20070;-83
2022/09/08 08:15:15;;;;;;;44.85;31.65;;;;;;;;;;4989639;28;20072;-82
2022/09/08 08:17:53;;;;;;;34.67;24.40;;;;;;;;;;4978711;28;20058;-81
2022/09/08 08:20:20;;;;;;;28.67;19.38;;;;;;;;;;4987322;28;20051;-81
2022/09/08 08:22:46;;;;;;;15.23;11.15;;;;;;;;;;4972245;28;20089;-81
2022/09/08 08:25:24;;;;;;;10.95;7.60;;;;;;;;;;4972842;28;20046;-82
2022/09/08 08:27:50;;;;;;;7.63;5.95;;;;;;;;;;4972364;28;20178;-82
2022/09/08 08:30:17;;;;;;;6.28;3.88;;;;;;;;;;4984635;28;20388;-83
2022/09/08 08:32:47;;;;;;;4.88;3.33;;;;;;;;;;4991263;28;20414;-82
2022/09/08 08:35:16;;;;;;;3.08;2.35;;;;;;;;;;4983786;28;20059;-82
2022/09/08 08:37:44;;;;;;;3.95;2.40;;;;;;;;;;4973324;28;20511;-81
2022/09/08 08:40:30;;;;;;;2.97;2.10;;;;;;;;;;4972939;28;20141;-82
2022/09/08 08:42:56;;;;;;;;;;;;;;;;;;4965363;28;20055;-82
2022/09/08 08:45:31;;;;;;;4.05;2.40;;;;;;;;;;4982346;28;19930;-82
2022/09/08 08:48:05;;;;;;;3.42;2.58;;;;;;;;;;4972179;28;20101;-82
2022/09/08 08:50:38;;;;;;;5.68;2.80;;;;;;;;;;4988424;28;20057;-81
2022/09/08 08:53:04;;;;;;;3.90;2.67;;;;;;;;;;4983892;28;20043;-82
2022/09/08 08:55:48;;;;;;;2.97;2.25;;;;;;;;;;4982704;28;20404;-80
2022/09/08 08:58:23;;;;;;;7.75;2.45;;;;;;;;;;4990499;28;20057;-82
2022/09/08 09:01:08;;;;;;;3.10;2.30;;;;;;;;;;4975559;28;20097;-81
2022/09/08 09:03:41;;;;;;;2.30;1.88;;;;;;;;;;4988463;28;20061;-82
2022/09/08 09:06:18;;;;;;;3.65;2.38;;;;;;;;;;4992119;28;20140;-81
2022/09/08 09:08:56;;;;;;;3.38;2.42;;;;;;;;;;4991099;28;20092;-83
2022/09/08 09:11:34;;;;;;;4.55;2.47;;;;;;;;;;4991145;28;20133;-83
2022/09/08 09:14:09;;;;;;;4.07;2.50;;;;;;;;;;4983436;28;20058;-82
2022/09/08 09:16:41;;;;;;;2.60;2.33;;;;;;;;;;4980363;28;20129;-82
2022/09/08 09:19:27;;;;;;;2.90;2.22;;;;;;;;;;4984774;28;20057;-82
2022/09/08 09:21:58;;;;;;;4.05;2.88;;;;;;;;;;4980546;28;20101;-82
2022/09/08 09:24:30;;;;;;;2.95;2.55;;;;;;;;;;4992066;28;20050;-82
2022/09/08 09:26:58;;;;;;;3.63;2.88;;;;;;;;;;4978036;28;20051;-83
2022/09/08 09:29:25;;;;;;;3.63;2.42;;;;;;;;;;4983508;28;20092;-83
2022/09/08 09:32:10;;;;;;;2.95;2.20;;;;;;;;;;4970728;28;20047;-82
2022/09/08 09:35:00;;;;;;;2.55;2.35;;;;;;;;;;4977597;28;20047;-82
2022/09/08 09:37:44;;;;;;;3.55;2.25;;;;;;;;;;4955146;28;20057;-84
2022/09/08 09:40:20;;;;;;;2.40;2.20;;;;;;;;;;4971136;28;20080;-82
2022/09/08 09:43:00;;;;;;;3.00;2.20;;;;;;;;;;4972673;28;20193;-82
2022/09/08 09:45:46;;;;;;;4.22;2.50;;;;;;;;;;4972851;28;20138;-83
2022/09/08 09:48:29;;;;;;;4.18;2.42;;;;;;;;;;4971702;28;20388;-82
2022/09/08 09:51:09;;;;;;;3.33;2.38;;;;;;;;;;4986560;28;20042;-80
2022/09/08 09:53:35;;;;;;;2.45;2.15;;;;;;;;;;4975238;28;20053;-82
2022/09/08 09:56:14;;;;;;;3.40;2.15;;;;;;;;;;4986842;28;20054;-80
2022/09/08 09:58:55;;;;;;;2.65;2.10;;;;;;;;;;4989151;28;20499;-80
2022/09/08 10:01:21;;;;;;;3.00;2.20;;;;;;;;;;4974851;28;20491;-80
2022/09/08 10:04:10;;;;;;;3.05;2.50;;;;;;;;;;4977777;28;20123;-80
2022/09/08 10:06:45;;;;;;;3.20;2.38;;;;;;;;;;4928729;29;20058;-80
2022/09/08 10:09:14;;;;;;;3.40;2.30;;;;;;;;;;4914924;29;20067;-80
2022/09/08 10:11:43;;;;;;;4.25;2.30;;;;;;;;;;4923205;29;20089;-82
2022/09/08 10:14:28;;;;;;;2.67;2.35;;;;;;;;;;4926687;29;20146;-80
2022/09/08 10:17:09;;;;;;;3.05;2.58;;;;;;;;;;4895896;29;20505;-80
2022/09/08 10:20:01;;;;;;;3.15;2.72;;;;;;;;;;4895885;29;20056;-80
2022/09/08 10:22:45;;;;;;;3.10;2.20;;;;;;;;;;4909265;29;20055;-80
2022/09/08 10:25:17;;;;;;;3.38;2.70;;;;;;;;;;4929506;29;20070;-80
2022/09/08 10:27:52;;;;;;;2.63;2.42;;;;;;;;;;4923609;29;20040;-80
2022/09/08 10:30:38;;;;;;;2.73;2.47;;;;;;;;;;4928636;29;20079;-81
2022/09/08 10:33:23;;;;;;;4.20;2.55;;;;;;;;;;4917772;29;20048;-81
2022/09/08 10:36:07;;;;;;;3.15;2.60;;;;;;;;;;4926197;29;20147;-80
2022/09/08 10:38:46;;;;;;;4.15;2.75;;;;;;;;;;4906623;29;20167;-80
2022/09/08 10:41:42;;;;;;;3.67;2.97;;;;;;;;;;4929005;29;20063;-80
2022/09/08 10:44:15;;;;;;;4.45;3.47;;;;;;;;;;4959019;28;20057;-80
2022/09/08 10:46:59;;;;;;;4.18;3.53;;;;;;;;;;4971193;28;20137;-81
2022/09/08 10:49:44;;;;;;;4.47;3.90;;;;;;;;;;4970970;28;20159;-80
2022/09/08 10:52:29;;;;;;;6.57;4.45;;;;;;;;;;4980218;28;20125;-80
2022/09/08 10:54:55;;;;;;;6.00;4.13;;;;;;;;;;4976681;28;20554;-80
2022/09/08 10:57:29;;;;;;;4.75;4.25;;;;;;;;;;4975940;28;20058;-80
2022/09/08 11:00:07;;;;;;;5.88;4.05;;;;;;;;;;4976490;28;20046;-80
2022/09/08 11:02:34;;;;;;;4.18;3.50;;;;;;;;;;4976294;28;20070;-79
2022/09/08 11:05:21;;;;;;;4.85;3.92;;;;;;;;;;4971859;28;20050;-80
2022/09/08 11:07:47;;;;;;;5.80;4.20;;;;;;;;;;4980781;28;20146;-80
2022/09/08 11:10:32;;;;;;;6.00;4.20;;;;;;;;;;4970100;28;20543;-80
2022/09/08 11:13:04;;;;;;;4.57;3.72;;;;;;;;;;4970766;28;20086;-80
2022/09/08 11:15:36;;;;;;;4.57;3.70;;;;;;;;;;4979369;28;20047;-79
2022/09/08 11:18:21;;;;;;;4.22;3.45;;;;;;;;;;4969277;28;20472;-79
2022/09/08 11:20:47;;;;;;;5.30;3.45;;;;;;;;;;4969728;28;20054;-80
2022/09/08 11:23:31;;;;;;;5.63;3.50;;;;;;;;;;4973009;28;20444;-80
2022/09/08 11:25:57;;;;;;;5.43;3.55;;;;;;;;;;4975520;28;20488;-80
2022/09/08 11:28:41;;;;;;;3.63;2.90;;;;;;;;;;4974753;28;20058;-80
2022/09/08 11:31:10;;;;;;;4.97;3.20;;;;;;;;;;4978420;28;20051;-80
2022/09/08 11:33:55;;;;;;;4.63;3.22;;;;;;;;;;4972677;28;20726;-80
2022/09/08 11:36:39;;;;;;;4.07;3.03;;;;;;;;;;4983234;28;20055;-80
2022/09/08 11:39:08;;;;;;;6.82;3.47;;;;;;;;;;4973187;28;20054;-80
2022/09/08 11:41:37;;;;;;;4.68;2.70;;;;;;;;;;4978369;28;20049;-80
2022/09/08 11:44:11;;;;;;;3.60;2.60;;;;;;;;;;4975054;28;20055;-80
2022/09/08 11:46:40;;;;;;;4.03;2.92;;;;;;;;;;4981695;28;20095;-80
2022/09/08 11:49:24;;;;;;;6.00;3.00;;;;;;;;;;4979548;28;20496;-80
2022/09/08 11:52:10;;;;;;;3.72;2.72;;;;;;;;;;4977860;28;20058;-82
2022/09/08 11:54:39;;;;;;;3.47;2.90;;;;;;;;;;4977328;28;20058;-82
2022/09/08 11:57:24;;;;;;;3.85;2.60;;;;;;;;;;4991665;28;20055;-80
2022/09/08 11:59:56;;;;;;;3.28;2.90;;;;;;;;;;4989689;28;20411;-83
2022/09/08 12:02:40;;;;;;;4.50;2.60;;;;;;;;;;4994371;28;20046;-82
2022/09/08 12:05:12;;;;;;;2.85;2.55;;;;;;;;;;4983984;28;20039;-84
2022/09/08 12:07:38;;;;;;;4.60;2.80;;;;;;;;;;4972273;28;20054;-81
2022/09/08 12:10:23;;;;;;;5.18;3.05;;;;;;;;;;4972893;28;20054;-80
2022/09/08 12:12:57;;;;;;;3.35;2.83;;;;;;;;;;4973990;28;20551;-83
2022/09/08 12:15:32;;;;;;;5.18;3.25;;;;;;;;;;4988855;28;20050;-81
2022/09/08 12:18:04;;;;;;;5.03;2.97;;;;;;;;;;4993070;28;20082;-80
2022/09/08 12:20:49;;;;;;;4.00;3.20;;;;;;;;;;4986884;28;20478;-83
2022/09/08 12:23:15;;;;;;;6.05;3.30;;;;;;;;;;4973554;28;20051;-83
2022/09/08 12:25:50;;;;;;;4.72;3.60;;;;;;;;;;4988659;28;20399;-84
2022/09/08 12:28:35;;;;;;;5.70;3.80;;;;;;;;;;4989886;28;20042;-81
2022/09/08 12:31:01;;;;;;;5.55;3.75;;;;;;;;;;4983428;28;20151;-80
2022/09/08 12:33:38;;;;;;;6.30;3.60;;;;;;;;;;4973024;28;20116;-80
2022/09/08 12:36:10;;;;;;;5.13;3.25;;;;;;;;;;4972760;28;20062;-80
2022/09/08 12:38:55;;;;;;;4.60;3.47;;;;;;;;;;4976515;28;20581;-80
2022/09/08 12:41:41;;;;;;;5.47;3.30;;;;;;;;;;4978506;28;20057;-84
2022/09/08 12:44:13;;;;;;;4.35;3.33;;;;;;;;;;4977396;28;20046;-80
2022/09/08 12:47:02;;;;;;;5.25;3.85;;;;;;;;;;4979146;28;20408;-81
2022/09/08 12:49:41;;;;;;;4.63;3.80;;;;;;;;;;4977443;28;20057;-80
2022/09/08 12:52:10;;;;;;;6.03;4.05;;;;;;;;;;4977929;28;20495;-79
2022/09/08 12:54:54;;;;;;;5.00;3.75;;;;;;;;;;4972963;28;20049;-79
2022/09/08 12:57:26;;;;;;;5.22;3.80;;;;;;;;;;4979368;28;20120;-79
2022/09/08 12:59:55;;;;;;;5.72;4.10;;;;;;;;;;4986412;28;20039;-79
2022/09/08 13:02:30;;;;;;;5.00;3.50;;;;;;;;;;4978743;28;20046;-78
2022/09/08 13:04:56;;;;;;;5.00;3.42;;;;;;;;;;4985609;28;20041;-79
2022/09/08 13:07:35;;;;;;;5.03;3.85;;;;;;;;;;4986634;28;20046;-80
2022/09/08 13:10:01;;;;;;;5.63;3.80;;;;;;;;;;4981750;28;20042;-80
2022/09/08 13:12:30;;;;;;;4.60;3.45;;;;;;;;;;4983049;28;20124;-79
2022/09/08 13:15:19;;;;;;;5.03;3.60;;;;;;;;;;4982244;28;20050;-82
2022/09/08 13:17:48;;;;;;;6.15;4.32;;;;;;;;;;4973316;28;20082;-81
2022/09/08 13:20:17;;;;;;;5.57;3.95;;;;;;;;;;4983773;28;20570;-81
2022/09/08 13:22:59;;;;;;;5.47;4.15;;;;;;;;;;4977563;28;20043;-81
2022/09/08 13:25:33;;;;;;;5.70;3.90;;;;;;;;;;4972315;28;20050;-80
2022/09/08 13:28:18;;;;;;;6.47;4.25;;;;;;;;;;4970934;28;20078;-80
2022/09/08 13:31:06;;;;;;;5.05;4.07;;;;;;;;;;4974796;28;20075;-79
2022/09/08 13:33:41;;;;;;;5.90;4.22;;;;;;;;;;4985364;28;20058;-80
2022/09/08 13:36:07;;;;;;;7.33;4.33;;;;;;;;;;4976175;28;20059;-80
2022/09/08 13:38:52;;;;;;;6.72;4.35;;;;;;;;;;4984240;28;20058;-80
2022/09/08 13:41:37;;;;;;;7.85;4.82;;;;;;;;;;4984684;28;20058;-79
2022/09/08 13:44:06;;;;;;;6.30;4.93;;;;;;;;;;4989337;28;20050;-79
2022/09/08 13:46:43;;;;;;;7.68;5.20;;;;;;;;;;4973544;28;20064;-79
2022/09/08 13:49:28;;;;;;;7.65;5.20;;;;;;;;;;4979027;28;20554;-79
2022/09/08 13:52:14;;;;;;;7.05;5.45;;;;;;;;;;4988711;28;20058;-79
2022/09/08 13:54:53;;;;;;;7.57;5.93;;;;;;;;;;4974679;28;20514;-80
2022/09/08 13:57:22;;;;;;;9.55;6.22;;;;;;;;;;4972954;28;20506;-81
2022/09/08 14:00:11;;;;;;;7.68;6.47;;;;;;;;;;4974595;28;20042;-81
2022/09/08 14:02:56;;;;;;;8.80;6.25;;;;;;;;;;4975180;28;20046;-81
2022/09/08 14:05:28;;;;;;;9.77;6.55;;;;;;;;;;4963674;28;20456;-80
2022/09/08 14:08:10;;;;;;;8.13;6.25;;;;;;;;;;4981552;28;20046;-82
2022/09/08 14:10:52;;;;;;;9.05;6.45;;;;;;;;;;4988484;28;20410;-81
2022/09/08 14:13:37;;;;;;;7.25;6.10;;;;;;;;;;4989145;28;20038;-81
2022/09/08 14:16:12;;;;;;;7.93;6.55;;;;;;;;;;4990244;28;20042;-81
2022/09/08 14:19:01;;;;;;;10.77;6.78;;;;;;;;;;4970110;28;20054;-81
2022/09/08 14:21:36;;;;;;;10.05;6.93;;;;;;;;;;4981908;28;20078;-80
2022/09/08 14:24:11;;;;;;;11.77;7.72;;;;;;;;;;4980239;28;20076;-81
2022/09/08 14:26:48;;;;;;;13.70;7.60;;;;;;;;;;4977913;28;20129;-82
2022/09/08 14:29:27;;;;;;;12.07;7.95;;;;;;;;;;4978125;28;20121;-81
2022/09/08 14:31:59;;;;;;;11.77;8.77;;;;;;;;;;4974759;28;20049;-81
2022/09/08 14:34:38;;;;;;;13.27;9.88;;;;;;;;;;4990636;28;20050;-82
2022/09/08 14:37:12;;;;;;;11.70;9.70;;;;;;;;;;4988816;28;20523;-82
2022/09/08 14:39:38;;;;;;;11.98;9.57;;;;;;;;;;4990589;28;20068;-81
2022/09/08 14:42:33;;;;;;;9.50;7.22;;;;;;;;;;4985920;28;20038;-80
2022/09/08 14:45:05;;;;;;;6.10;5.50;;;;;;;;;;4956797;28;20102;-79
2022/09/08 14:47:39;;;;;;;7.38;6.40;;;;;;;;;;4972672;28;20491;-80
2022/09/08 14:50:24;;;;;;;8.80;7.28;;;;;;;;;;4970922;28;20045;-80
2022/09/08 14:53:03;;;;;;;11.60;7.88;;;;;;;;;;4970782;28;20054;-80
2022/09/08 14:55:33;;;;;;;11.95;9.57;;;;;;;;;;4969720;28;20424;-80
2022/09/08 14:58:25;;;;;;;12.80;9.45;;;;;;;;;;4969097;28;20051;-80
2022/09/08 15:00:53;;;;;;;12.27;8.60;;;;;;;;;;4964623;28;20085;-80
2022/09/08 15:03:25;;;;;;;12.55;10.30;;;;;;;;;;4970881;28;20511;-80